Time;durP1;ratioP1;P1;durP2;ratioP2;P2;SDS_P1;SDS_P2;PMS_P1;PMS_P2;Temp;Humidity;BMP_temperature;BMP_pressure;BME280_temperature;BME280_humidity;BME280_pressure;Samples;Min_cycle;Max_cycle;Signal;HPM_P1;HPM_P2
2021/04/29 00:01:42;;;;;;;9.90;8.30;;;13.60;93.50;;;;;;5098497;28;20619;-79
2021/04/29 00:04:09;;;;;;;10.43;9.33;;;13.60;93.60;;;;;;5111443;28;20659;-79
2021/04/29 00:06:36;;;;;;;10.67;8.70;;;13.60;93.50;;;;;;5092079;28;20619;-78
2021/04/29 00:09:04;;;;;;;9.70;8.63;;;13.60;94.90;;;;;;5090116;28;20597;-79
2021/04/29 00:11:32;;;;;;;11.43;9.70;;;13.70;94.50;;;;;;5106094;28;20732;-79
2021/04/29 00:13:58;;;;;;;10.40;9.40;;;13.60;94.10;;;;;;5103637;28;20206;-79
2021/04/29 00:16:25;;;;;;;13.70;9.50;;;13.60;93.90;;;;;;5108040;28;20627;-79
2021/04/29 00:18:51;;;;;;;12.10;10.00;;;13.70;94.00;;;;;;5099623;28;20620;-79
2021/04/29 00:21:18;;;;;;;10.83;9.70;;;13.60;94.90;;;;;;5091359;28;20662;-79
2021/04/29 00:23:44;;;;;;;10.17;9.10;;;13.50;95.00;;;;;;5090383;28;20698;-79
2021/04/29 00:26:10;;;;;;;13.20;10.23;;;13.40;96.50;;;;;;5092659;28;20629;-79
2021/04/29 00:28:38;;;;;;;11.40;9.43;;;13.40;97.20;;;;;;5098674;28;20627;-79
2021/04/29 00:31:04;;;;;;;11.70;10.50;;;13.40;97.30;;;;;;5104191;28;20624;-79
2021/04/29 00:33:31;;;;;;;10.90;9.80;;;13.20;97.80;;;;;;5110885;28;20673;-79
2021/04/29 00:36:00;;;;;;;11.93;9.30;;;13.20;98.30;;;;;;5098461;28;21231;-79
2021/04/29 00:38:26;;;;;;;10.83;9.73;;;13.30;97.90;;;;;;5109357;28;20680;-78
2021/04/29 00:40:52;;;;;;;14.13;9.70;;;13.20;98.20;;;;;;5102251;28;20634;-79
2021/04/29 00:43:19;;;;;;;16.23;10.03;;;13.30;98.90;;;;;;5110555;28;21163;-79
2021/04/29 00:45:47;;;;;;;10.90;9.80;;;13.40;98.50;;;;;;5109134;28;20631;-79
2021/04/29 00:48:13;;;;;;;10.80;9.70;;;13.40;98.30;;;;;;5110577;28;20615;-79
2021/04/29 00:50:40;;;;;;;12.73;10.53;;;13.50;97.70;;;;;;5099810;28;20611;-79
2021/04/29 00:53:06;;;;;;;11.43;9.70;;;13.40;98.10;;;;;;5107805;28;21143;-79
2021/04/29 00:55:34;;;;;;;15.53;11.10;;;13.50;98.10;;;;;;5090967;28;20613;-79
2021/04/29 00:58:00;;;;;;;9.97;8.97;;;13.60;98.00;;;;;;5089977;28;20656;-79
2021/04/29 01:00:27;;;;;;;11.83;10.53;;;13.40;98.40;;;;;;5084830;28;20620;-79
2021/04/29 01:03:00;;;;;;;10.53;9.20;;;13.30;99.50;;;;;;5093834;28;20640;-79
2021/04/29 01:05:33;;;;;;;10.33;9.23;;;13.40;99.50;;;;;;5100436;28;20647;-79
2021/04/29 01:08:05;;;;;;;11.53;10.33;;;13.20;99.20;;;;;;5108943;28;20938;-79
2021/04/29 01:10:39;;;;;;;12.07;9.30;;;13.20;99.90;;;;;;5101220;28;20633;-79
2021/04/29 01:13:09;;;;;;;10.17;9.17;;;13.30;99.90;;;;;;5110714;28;20952;-79
2021/04/29 01:15:40;;;;;;;10.40;9.33;;;13.50;99.30;;;;;;5108563;28;21029;-79
2021/04/29 01:18:09;;;;;;;8.80;7.90;;;13.50;99.00;;;;;;5097098;28;20635;-79
2021/04/29 01:20:45;;;;;;;9.70;8.70;;;13.60;98.80;;;;;;5094646;28;21040;-79
2021/04/29 01:23:18;;;;;;;10.53;8.50;;;13.50;98.40;;;;;;5109965;28;20619;-79
2021/04/29 01:25:49;;;;;;;8.20;7.20;;;13.50;98.40;;;;;;5100315;28;20722;-79
2021/04/29 01:28:19;;;;;;;8.37;7.20;;;13.40;99.00;;;;;;5110036;28;20635;-79
2021/04/29 01:30:47;;;;;;;8.07;7.27;;;12.90;99.20;;;;;;5097629;28;20661;-80
2021/04/29 01:33:15;;;;;;;7.50;6.90;;;12.80;99.90;;;;;;5095497;28;20621;-79
2021/04/29 01:35:42;;;;;;;6.20;5.60;;;12.90;99.90;;;;;;5105469;28;20631;-79
2021/04/29 01:38:10;;;;;;;6.67;6.00;;;12.80;99.90;;;;;;5114141;28;20732;-79
2021/04/29 01:40:40;;;;;;;5.03;4.53;;;12.70;99.90;;;;;;5102597;28;21271;-79
2021/04/29 01:43:08;;;;;;;4.57;4.00;;;12.70;99.90;;;;;;5093932;28;20620;-79
2021/04/29 01:45:41;;;;;;;4.70;4.27;;;12.70;99.90;;;;;;5094922;28;20648;-79
2021/04/29 01:48:10;;;;;;;4.53;4.13;;;12.60;99.90;;;;;;5105061;28;20629;-79
2021/04/29 01:50:38;;;;;;;4.10;3.37;;;12.50;99.90;;;;;;5104478;28;21467;-78
2021/04/29 01:53:06;;;;;;;4.03;3.63;;;12.50;99.90;;;;;;5107661;28;21269;-79
2021/04/29 01:55:34;;;;;;;2.93;2.73;;;12.50;99.90;;;;;;5105282;28;20632;-79
2021/04/29 01:58:01;;;;;;;3.27;2.97;;;12.60;99.90;;;;;;5107004;28;20630;-78
2021/04/29 02:00:29;;;;;;;2.53;2.33;;;12.70;99.90;;;;;;5089492;28;20985;-79
2021/04/29 02:03:00;;;;;;;2.80;2.60;;;12.60;99.90;;;;;;5088507;28;20646;-79
2021/04/29 02:05:29;;;;;;;4.60;2.60;;;12.60;99.90;;;;;;5075163;28;20676;-79
2021/04/29 02:07:59;;;;;;;3.60;2.63;;;12.60;99.90;;;;;;5099003;28;20975;-79
2021/04/29 02:10:26;;;;;;;3.70;2.13;;;12.60;99.80;;;;;;5104440;28;20961;-79
2021/04/29 02:12:56;;;;;;;2.50;2.30;;;12.50;99.80;;;;;;5098774;28;20668;-79
2021/04/29 02:15:28;;;;;;;2.57;2.37;;;12.50;99.90;;;;;;5104584;28;20620;-79
2021/04/29 02:18:02;;;;;;;3.00;2.80;;;12.40;99.80;;;;;;5107604;28;20634;-79
2021/04/29 02:20:32;;;;;;;2.30;2.07;;;12.50;99.90;;;;;;5103702;28;20623;-79
2021/04/29 02:22:59;;;;;;;2.40;2.20;;;12.50;99.90;;;;;;5093092;28;20604;-79
2021/04/29 02:25:28;;;;;;;2.33;2.13;;;12.40;99.90;;;;;;5101779;28;20694;-79
2021/04/29 02:27:56;;;;;;;1.90;1.80;;;12.60;99.90;;;;;;5098257;28;20612;-79
2021/04/29 02:30:23;;;;;;;2.43;2.23;;;12.70;99.90;;;;;;5101379;28;20620;-79
2021/04/29 02:32:50;;;;;;;1.73;1.63;;;12.70;99.70;;;;;;5097421;28;20615;-79
2021/04/29 02:35:18;;;;;;;1.97;1.77;;;12.50;99.90;;;;;;5105675;28;20612;-78
2021/04/29 02:37:48;;;;;;;2.10;1.60;;;12.60;99.40;;;;;;5096963;28;20677;-79
2021/04/29 02:40:16;;;;;;;1.80;1.70;;;12.70;99.30;;;;;;5100407;28;20619;-78
2021/04/29 02:42:43;;;;;;;2.30;1.87;;;12.70;99.00;;;;;;5108152;28;20619;-79
2021/04/29 02:45:12;;;;;;;1.90;1.70;;;12.80;98.70;;;;;;5106495;28;20647;-79
2021/04/29 02:47:39;;;;;;;1.80;1.70;;;12.60;98.40;;;;;;5100691;28;20616;-80
2021/04/29 02:50:10;;;;;;;2.43;1.70;;;12.50;98.90;;;;;;5093556;28;20620;-80
2021/04/29 02:52:38;;;;;;;2.03;1.93;;;12.40;99.50;;;;;;5091518;28;20596;-80
2021/04/29 02:55:07;;;;;;;2.30;2.10;;;12.40;99.60;;;;;;5086978;28;20612;-79
2021/04/29 02:57:34;;;;;;;2.13;1.93;;;12.40;99.60;;;;;;5091856;28;20629;-79
2021/04/29 03:00:00;;;;;;;2.00;1.90;;;12.30;99.50;;;;;;5090227;28;20628;-80
2021/04/29 03:02:26;;;;;;;7.43;2.00;;;12.20;99.90;;;;;;5102575;28;20635;-79
2021/04/29 03:04:53;;;;;;;2.87;1.90;;;12.00;99.90;;;;;;5110654;28;20507;-79
2021/04/29 03:07:20;;;;;;;1.38;1.27;;;11.80;99.90;;;;;;5112435;28;20611;-79
2021/04/29 03:09:46;;;;;;;2.17;1.38;;;11.80;99.90;;;;;;5104093;28;20203;-79
2021/04/29 03:12:14;;;;;;;1.20;1.10;;;11.70;99.90;;;;;;5105020;28;20187;-79
2021/04/29 03:14:40;;;;;;;1.33;1.23;;;11.60;99.90;;;;;;5096745;28;21164;-79
2021/04/29 03:17:06;;;;;;;2.55;1.25;;;11.70;99.90;;;;;;5110918;28;20194;-79
2021/04/29 03:19:33;;;;;;;1.23;1.10;;;11.90;99.90;;;;;;5109802;28;20694;-79
2021/04/29 03:21:59;;;;;;;0.82;0.82;;;11.90;99.90;;;;;;5094877;28;20202;-79
2021/04/29 03:24:25;;;;;;;1.23;1.13;;;11.80;99.90;;;;;;5101219;28;20213;-79
2021/04/29 03:26:52;;;;;;;0.70;0.70;;;11.80;99.90;;;;;;5091846;28;20631;-79
2021/04/29 03:29:19;;;;;;;1.52;1.10;;;11.70;99.90;;;;;;5101272;28;20209;-78
2021/04/29 03:31:45;;;;;;;0.90;0.77;;;11.60;99.90;;;;;;5098200;28;20197;-79
2021/04/29 03:34:12;;;;;;;0.93;0.88;;;11.50;99.90;;;;;;5111552;28;20583;-79
2021/04/29 03:36:38;;;;;;;0.90;0.90;;;11.50;99.90;;;;;;5092420;28;20556;-79
2021/04/29 03:39:05;;;;;;;1.63;1.40;;;11.70;99.90;;;;;;5090760;28;20603;-80
2021/04/29 03:41:31;;;;;;;2.60;2.00;;;11.60;99.90;;;;;;5093368;28;20841;-78
2021/04/29 03:43:58;;;;;;;1.20;0.97;;;11.50;99.90;;;;;;5091487;28;20820;-79
2021/04/29 03:46:25;;;;;;;1.00;0.90;;;11.30;99.90;;;;;;5092403;28;20719;-79
2021/04/29 03:48:51;;;;;;;1.05;0.95;;;11.40;99.90;;;;;;5093144;28;20218;-79
2021/04/29 03:51:18;;;;;;;0.70;0.70;;;11.40;99.90;;;;;;5098582;28;20245;-79
2021/04/29 03:53:44;;;;;;;3.97;2.85;;;11.40;99.90;;;;;;5108513;28;20631;-79
2021/04/29 03:56:10;;;;;;;1.95;1.02;;;11.40;99.90;;;;;;5109479;28;20217;-79
2021/04/29 03:58:37;;;;;;;0.93;0.80;;;11.30;99.90;;;;;;5110937;28;20263;-79
2021/04/29 04:01:03;;;;;;;1.10;0.80;;;11.40;99.90;;;;;;5105799;28;20202;-79
2021/04/29 04:03:30;;;;;;;1.10;0.85;;;11.30;99.90;;;;;;5111128;28;20244;-79
2021/04/29 04:05:57;;;;;;;4.38;3.05;;;11.40;99.90;;;;;;5110077;28;20281;-79
2021/04/29 04:08:23;;;;;;;1.40;1.30;;;11.40;99.90;;;;;;5109927;28;20590;-79
2021/04/29 04:10:50;;;;;;;1.20;1.10;;;11.60;99.90;;;;;;5096683;28;20281;-79
2021/04/29 04:13:18;;;;;;;0.82;0.82;;;11.70;99.90;;;;;;5070862;28;20621;-79
2021/04/29 04:15:44;;;;;;;0.90;0.90;;;11.70;99.40;;;;;;5096470;28;20202;-79
2021/04/29 04:18:10;;;;;;;0.93;0.80;;;11.70;99.40;;;;;;5094716;28;20245;-79
2021/04/29 04:20:38;;;;;;;1.10;0.95;;;11.70;99.80;;;;;;5101593;28;20198;-79
2021/04/29 04:23:04;;;;;;;1.20;1.10;;;11.80;99.90;;;;;;5090777;28;20310;-79
2021/04/29 04:25:31;;;;;;;1.20;1.10;;;11.70;99.70;;;;;;5077888;28;20665;-79
2021/04/29 04:27:57;;;;;;;0.90;0.90;;;11.50;99.80;;;;;;5070325;28;20199;-79
2021/04/29 04:30:24;;;;;;;4.85;1.20;;;11.50;98.50;;;;;;5089966;28;20222;-79
2021/04/29 04:32:50;;;;;;;1.30;1.20;;;11.60;99.30;;;;;;5099918;28;20558;-79
2021/04/29 04:35:17;;;;;;;1.33;1.10;;;11.70;99.10;;;;;;5108402;28;20197;-79
2021/04/29 04:37:44;;;;;;;2.67;1.17;;;11.70;98.60;;;;;;5111232;28;20661;-79
2021/04/29 04:40:11;;;;;;;1.60;1.25;;;11.70;98.60;;;;;;5104079;28;20655;-79
2021/04/29 04:42:38;;;;;;;1.50;1.38;;;11.60;99.50;;;;;;5096220;28;20713;-79
2021/04/29 04:45:06;;;;;;;1.80;1.70;;;11.80;98.90;;;;;;5101811;28;20301;-79
2021/04/29 04:47:32;;;;;;;2.58;1.55;;;12.00;98.20;;;;;;5094881;28;20624;-78
2021/04/29 04:49:59;;;;;;;1.33;1.20;;;12.10;97.80;;;;;;5108435;28;20194;-79
2021/04/29 04:52:25;;;;;;;1.50;1.40;;;12.00;98.10;;;;;;5105028;28;20628;-79
2021/04/29 04:54:53;;;;;;;2.05;1.85;;;11.90;97.60;;;;;;5103630;28;20202;-79
2021/04/29 04:57:19;;;;;;;3.58;1.50;;;11.90;97.90;;;;;;5110819;28;20202;-79
2021/04/29 04:59:46;;;;;;;2.20;1.52;;;11.80;97.30;;;;;;5099350;28;20198;-79
2021/04/29 05:02:13;;;;;;;1.58;1.48;;;11.70;95.90;;;;;;5110690;28;20762;-79
2021/04/29 05:04:40;;;;;;;2.07;1.93;;;12.00;96.70;;;;;;5094060;28;20693;-79
2021/04/29 05:07:07;;;;;;;3.55;2.28;;;12.00;95.90;;;;;;5113937;28;20714;-79
2021/04/29 05:09:34;;;;;;;2.45;2.25;;;12.10;96.10;;;;;;5108371;28;20235;-79
2021/04/29 05:12:01;;;;;;;2.28;2.05;;;12.00;95.10;;;;;;5098600;28;20206;-80
2021/04/29 05:14:28;;;;;;;3.42;2.80;;;12.00;95.00;;;;;;5106501;28;20224;-80
2021/04/29 05:16:55;;;;;;;2.17;1.98;;;12.30;95.10;;;;;;5101886;28;20205;-80
2021/04/29 05:19:21;;;;;;;2.67;2.37;;;12.40;95.50;;;;;;5094069;28;20194;-80
2021/04/29 05:21:48;;;;;;;3.70;2.23;;;12.10;94.30;;;;;;5107914;28;21183;-80
2021/04/29 05:24:14;;;;;;;2.67;2.47;;;12.10;94.50;;;;;;5096431;28;21216;-81
2021/04/29 05:26:40;;;;;;;3.30;2.30;;;12.10;93.80;;;;;;5114107;28;20648;-80
2021/04/29 05:29:08;;;;;;;2.23;2.13;;;12.20;94.90;;;;;;5096366;28;21164;-80
2021/04/29 05:31:35;;;;;;;3.20;2.57;;;12.40;95.00;;;;;;5089574;28;20650;-80
2021/04/29 05:34:01;;;;;;;3.77;2.93;;;12.10;94.00;;;;;;5093014;28;21199;-81
2021/04/29 05:36:28;;;;;;;4.70;2.65;;;12.10;94.00;;;;;;5094213;28;20625;-81
2021/04/29 05:38:54;;;;;;;2.63;2.43;;;12.20;93.90;;;;;;5095437;28;20203;-81
2021/04/29 05:41:21;;;;;;;4.10;3.30;;;12.30;93.90;;;;;;5094261;28;20621;-81
2021/04/29 05:43:47;;;;;;;3.47;3.00;;;12.20;93.00;;;;;;5095235;28;20710;-81
2021/04/29 05:46:14;;;;;;;4.50;3.60;;;12.20;93.20;;;;;;5099112;28;20757;-81
2021/04/29 05:48:41;;;;;;;3.63;3.10;;;12.00;93.50;;;;;;5105482;28;20677;-81
2021/04/29 05:51:07;;;;;;;3.47;2.77;;;11.90;94.30;;;;;;5094205;28;21177;-80
2021/04/29 05:53:33;;;;;;;3.50;3.20;;;11.90;94.00;;;;;;5093748;28;20652;-81
2021/04/29 05:56:00;;;;;;;7.40;4.00;;;12.00;94.50;;;;;;5096931;28;20285;-81
2021/04/29 05:58:26;;;;;;;3.57;3.27;;;11.90;93.20;;;;;;5107065;28;20723;-81
2021/04/29 06:00:53;;;;;;;3.73;3.00;;;11.90;93.90;;;;;;5098690;28;20964;-81
2021/04/29 06:03:21;;;;;;;3.57;3.23;;;12.00;93.60;;;;;;5098029;28;20643;-81
2021/04/29 06:05:48;;;;;;;3.50;3.20;;;11.90;93.00;;;;;;5099320;28;20663;-81
2021/04/29 06:08:14;;;;;;;3.77;3.40;;;11.90;93.30;;;;;;5105532;28;20652;-82
2021/04/29 06:10:40;;;;;;;4.40;3.80;;;12.10;93.40;;;;;;5106135;28;21267;-82
2021/04/29 06:13:09;;;;;;;4.20;3.80;;;12.20;93.20;;;;;;5093542;28;20658;-81
2021/04/29 06:15:35;;;;;;;3.77;3.47;;;11.90;93.10;;;;;;5080830;28;20628;-82
2021/04/29 06:18:02;;;;;;;4.30;3.40;;;11.80;93.00;;;;;;5090823;28;20699;-82
2021/04/29 06:20:29;;;;;;;3.50;3.20;;;11.70;93.10;;;;;;5101137;28;20631;-82
2021/04/29 06:22:56;;;;;;;4.70;3.23;;;12.00;93.90;;;;;;5113606;28;20951;-81
2021/04/29 06:25:23;;;;;;;3.67;3.38;;;12.00;94.20;;;;;;5107601;28;21628;-82
2021/04/29 06:27:49;;;;;;;3.80;3.40;;;12.00;93.80;;;;;;5110863;28;20190;-82
2021/04/29 06:30:17;;;;;;;5.35;3.70;;;12.10;93.10;;;;;;5103781;28;20623;-82
2021/04/29 06:32:43;;;;;;;5.60;3.60;;;12.30;93.50;;;;;;5099749;28;20194;-82
2021/04/29 06:35:10;;;;;;;5.47;3.80;;;12.00;93.00;;;;;;5100792;28;20619;-82
2021/04/29 06:37:38;;;;;;;4.07;3.67;;;12.20;93.40;;;;;;5112850;28;20619;-81
2021/04/29 06:40:06;;;;;;;6.07;3.20;;;12.30;92.60;;;;;;5104383;28;21220;-82
2021/04/29 06:42:32;;;;;;;4.10;3.70;;;12.30;92.70;;;;;;5093735;28;20631;-83
2021/04/29 06:45:09;;;;;;;4.70;4.30;;;12.40;92.00;;;;;;5095555;28;20655;-83
2021/04/29 06:47:36;;;;;;;4.30;3.90;;;12.30;92.60;;;;;;5102296;28;20221;-82
2021/04/29 06:50:03;;;;;;;5.67;4.40;;;12.40;92.90;;;;;;5100220;28;20695;-83
2021/04/29 06:52:29;;;;;;;4.50;3.90;;;12.60;92.40;;;;;;5092863;28;20621;-82
2021/04/29 06:54:56;;;;;;;5.13;4.20;;;12.90;92.20;;;;;;5099255;28;20628;-84
2021/04/29 06:57:23;;;;;;;4.63;3.53;;;12.90;91.50;;;;;;5092868;28;20659;-82
2021/04/29 06:59:50;;;;;;;5.43;4.93;;;13.00;91.20;;;;;;5098094;28;21250;-83
2021/04/29 07:02:17;;;;;;;4.60;4.20;;;13.20;91.10;;;;;;5101103;28;20740;-82
2021/04/29 07:04:43;;;;;;;4.27;3.97;;;13.20;91.20;;;;;;5096997;28;20651;-83
2021/04/29 07:07:10;;;;;;;5.07;4.67;;;13.30;90.30;;;;;;5113034;28;20665;-83
2021/04/29 07:09:36;;;;;;;5.33;4.83;;;13.60;90.90;;;;;;5096728;28;20631;-83
2021/04/29 07:12:04;;;;;;;5.50;5.00;;;13.50;88.70;;;;;;5106906;28;21164;-83
2021/04/29 07:14:31;;;;;;;7.97;5.53;;;13.70;90.00;;;;;;5104518;28;20616;-83
2021/04/29 07:16:57;;;;;;;4.83;4.33;;;13.60;90.20;;;;;;5100169;28;20623;-83
2021/04/29 07:19:24;;;;;;;7.10;4.80;;;13.90;90.20;;;;;;5109983;28;20680;-83
2021/04/29 07:21:50;;;;;;;6.47;4.47;;;13.70;88.70;;;;;;5109306;28;20740;-83
2021/04/29 07:24:16;;;;;;;5.60;4.80;;;13.70;89.30;;;;;;5094589;28;20659;-83
2021/04/29 07:26:43;;;;;;;4.90;4.43;;;13.80;89.70;;;;;;5096691;28;20681;-83
2021/04/29 07:29:11;;;;;;;6.90;5.07;;;13.80;88.70;;;;;;5096102;28;20619;-83
2021/04/29 07:31:37;;;;;;;5.80;5.30;;;13.90;87.60;;;;;;5095704;28;20659;-83
2021/04/29 07:34:04;;;;;;;5.37;4.83;;;14.00;87.30;;;;;;5093213;28;20629;-83
2021/04/29 07:36:31;;;;;;;6.27;5.63;;;13.90;86.70;;;;;;5105513;28;20616;-83
2021/04/29 07:38:59;;;;;;;5.57;5.10;;;13.90;87.80;;;;;;5091464;28;20693;-82
2021/04/29 07:41:28;;;;;;;5.87;5.37;;;13.50;89.00;;;;;;5109940;28;20731;-83
2021/04/29 07:43:56;;;;;;;6.27;5.30;;;13.40;89.70;;;;;;5100373;28;20651;-83
2021/04/29 07:46:24;;;;;;;5.93;5.23;;;13.40;89.90;;;;;;5090343;28;21042;-82
2021/04/29 07:48:50;;;;;;;7.27;6.07;;;13.60;89.40;;;;;;5091767;28;20682;-82
2021/04/29 07:51:17;;;;;;;6.47;5.87;;;13.90;88.60;;;;;;5095910;28;20643;-81
2021/04/29 07:53:43;;;;;;;8.40;6.70;;;14.10;88.40;;;;;;5098620;28;20624;-81
2021/04/29 07:56:09;;;;;;;6.73;5.90;;;14.10;86.30;;;;;;5094287;28;20625;-82
2021/04/29 07:58:36;;;;;;;8.43;7.10;;;14.10;84.90;;;;;;5102367;28;20691;-82
2021/04/29 08:01:04;;;;;;;8.43;7.13;;;14.60;85.40;;;;;;5096365;28;20624;-81
2021/04/29 08:03:31;;;;;;;7.33;6.63;;;14.60;81.50;;;;;;5091020;28;20682;-81
2021/04/29 08:05:58;;;;;;;9.67;8.33;;;14.70;79.90;;;;;;5104318;28;20659;-81
2021/04/29 08:08:24;;;;;;;12.00;8.27;;;14.70;80.30;;;;;;5106175;28;20636;-83
2021/04/29 08:10:51;;;;;;;9.23;7.37;;;14.60;79.20;;;;;;5102653;28;21198;-82
2021/04/29 08:13:17;;;;;;;7.20;6.50;;;14.70;79.00;;;;;;5106338;28;20620;-81
2021/04/29 08:15:44;;;;;;;9.73;8.63;;;14.70;76.00;;;;;;5097303;28;20690;-80
2021/04/29 08:18:11;;;;;;;8.30;7.47;;;14.80;76.30;;;;;;5094377;28;20620;-81
2021/04/29 08:20:39;;;;;;;9.70;8.40;;;14.80;77.60;;;;;;5096651;28;20754;-81
2021/04/29 08:23:06;;;;;;;9.30;7.13;;;14.70;75.60;;;;;;5104825;28;20615;-81
2021/04/29 08:25:35;;;;;;;9.40;8.27;;;14.70;76.10;;;;;;5097800;28;20650;-83
2021/04/29 08:28:02;;;;;;;8.87;6.80;;;15.10;76.30;;;;;;5090630;28;21188;-80
2021/04/29 08:30:29;;;;;;;8.57;7.57;;;15.50;73.90;;;;;;5093480;28;20630;-80
2021/04/29 08:32:57;;;;;;;8.93;8.13;;;16.00;74.90;;;;;;5098375;28;20612;-79
2021/04/29 08:35:24;;;;;;;8.07;7.07;;;15.90;70.40;;;;;;5102461;28;20624;-79
2021/04/29 08:37:53;;;;;;;9.10;8.07;;;15.70;69.10;;;;;;5090530;28;20646;-80
2021/04/29 08:40:21;;;;;;;9.47;8.50;;;15.90;71.30;;;;;;5096740;28;20684;-80
2021/04/29 08:42:48;;;;;;;9.83;8.20;;;16.20;70.60;;;;;;5109875;28;20620;-80
2021/04/29 08:45:15;;;;;;;8.80;8.10;;;16.30;68.80;;;;;;5109144;28;20728;-80
2021/04/29 08:47:42;;;;;;;9.90;8.90;;;16.00;67.70;;;;;;5110620;28;20623;-79
2021/04/29 08:50:10;;;;;;;9.10;8.20;;;16.10;68.90;;;;;;5108297;28;20620;-80
2021/04/29 08:52:37;;;;;;;8.33;7.50;;;16.10;69.10;;;;;;5110795;28;20615;-80
2021/04/29 08:55:06;;;;;;;8.33;7.63;;;16.40;70.00;;;;;;5103257;28;20624;-80
2021/04/29 08:57:33;;;;;;;8.70;7.90;;;16.70;70.70;;;;;;5090227;28;20616;-80
2021/04/29 09:00:00;;;;;;;9.57;8.33;;;16.50;63.50;;;;;;5097100;28;20624;-78
2021/04/29 09:02:34;;;;;;;9.80;7.60;;;16.40;62.70;;;;;;5110306;28;20626;-78
2021/04/29 09:05:13;;;;;;;9.87;8.87;;;16.50;64.30;;;;;;5106041;28;20647;-79
2021/04/29 09:07:39;;;;;;;9.43;8.53;;;16.40;62.10;;;;;;5110061;28;20626;-78
2021/04/29 09:10:08;;;;;;;9.70;8.80;;;16.20;62.10;;;;;;5100450;28;20616;-80
2021/04/29 09:12:38;;;;;;;7.90;7.10;;;15.90;63.80;;;;;;5090124;28;20655;-80
2021/04/29 09:15:06;;;;;;;8.33;7.60;;;16.20;65.50;;;;;;5096433;28;20620;-80
2021/04/29 09:17:33;;;;;;;8.33;7.33;;;16.30;63.90;;;;;;5110256;28;20745;-79
2021/04/29 09:19:59;;;;;;;8.03;7.20;;;15.80;63.80;;;;;;5094348;28;20626;-79
2021/04/29 09:22:27;;;;;;;10.27;7.67;;;15.70;64.20;;;;;;5110261;28;20960;-79
2021/04/29 09:24:54;;;;;;;9.30;7.30;;;15.50;64.70;;;;;;5086292;28;20680;-80
2021/04/29 09:27:24;;;;;;;8.37;7.23;;;15.70;66.60;;;;;;5076660;28;20660;-79
2021/04/29 09:29:52;;;;;;;8.33;7.20;;;15.90;65.60;;;;;;5089246;28;20623;-79
2021/04/29 09:32:37;;;;;;;6.67;6.07;;;15.80;65.10;;;;;;5091949;28;20631;-79
2021/04/29 09:35:06;;;;;;;8.70;7.80;;;15.30;64.30;;;;;;5094907;28;20672;-79
2021/04/29 09:37:34;;;;;;;8.73;7.43;;;15.10;65.50;;;;;;5092868;28;20727;-80
2021/04/29 09:40:03;;;;;;;6.90;6.30;;;14.50;72.10;;;;;;5106952;28;20607;-79
2021/04/29 09:42:32;;;;;;;6.37;5.77;;;14.10;78.80;;;;;;5089742;28;20603;-80
2021/04/29 09:45:00;;;;;;;8.60;7.27;;;13.40;81.30;;;;;;5089635;28;20655;-80
2021/04/29 09:47:27;;;;;;;7.57;6.87;;;13.10;82.00;;;;;;5090406;28;20620;-79
2021/04/29 09:49:53;;;;;;;7.20;6.50;;;13.10;85.50;;;;;;5093522;28;20678;-80
2021/04/29 09:52:22;;;;;;;6.77;6.13;;;13.00;83.60;;;;;;5089899;28;20621;-79
2021/04/29 09:54:49;;;;;;;7.73;6.93;;;13.10;85.40;;;;;;5097046;28;20717;-80
2021/04/29 09:57:21;;;;;;;9.27;8.00;;;13.30;85.90;;;;;;5093524;28;20719;-79
2021/04/29 09:59:53;;;;;;;9.13;8.23;;;13.40;88.10;;;;;;5100698;28;20728;-79
2021/04/29 10:02:20;;;;;;;8.77;8.00;;;13.40;83.10;;;;;;5094810;28;20671;-79
2021/04/29 10:04:47;;;;;;;10.60;9.03;;;13.60;87.40;;;;;;5097676;28;20648;-79
2021/04/29 10:07:15;;;;;;;8.80;7.53;;;13.90;84.50;;;;;;5093023;28;20616;-80
2021/04/29 10:09:44;;;;;;;9.70;8.80;;;14.30;84.70;;;;;;5092506;28;21175;-80
2021/04/29 10:12:11;;;;;;;8.63;7.87;;;14.90;82.90;;;;;;5089792;28;21217;-81
2021/04/29 10:14:42;;;;;;;8.43;7.43;;;15.30;79.50;;;;;;5094931;28;21017;-81
2021/04/29 10:17:11;;;;;;;11.23;8.20;;;16.00;80.60;;;;;;5090331;28;20620;-81
2021/04/29 10:19:41;;;;;;;8.57;7.80;;;16.50;75.50;;;;;;5093838;28;20756;-78
2021/04/29 10:22:09;;;;;;;8.83;8.03;;;17.10;71.10;;;;;;5093107;28;21145;-81
2021/04/29 10:24:36;;;;;;;8.60;7.90;;;17.10;67.50;;;;;;5099914;28;20687;-80
2021/04/29 10:27:05;;;;;;;7.07;6.47;;;17.10;67.20;;;;;;5092895;28;20608;-79
2021/04/29 10:29:32;;;;;;;7.60;6.90;;;17.50;67.70;;;;;;5104537;28;20630;-81
2021/04/29 10:32:00;;;;;;;6.50;5.67;;;17.60;63.90;;;;;;5094084;28;20694;-79
2021/04/29 10:34:39;;;;;;;7.20;6.60;;;17.70;64.10;;;;;;5104099;28;20627;-80
2021/04/29 10:37:14;;;;;;;7.83;7.03;;;17.50;61.30;;;;;;5102586;28;20965;-80
2021/04/29 10:39:51;;;;;;;7.83;7.03;;;17.40;62.10;;;;;;5092624;28;20611;-81
2021/04/29 10:42:19;;;;;;;9.40;7.20;;;17.30;60.20;;;;;;5092896;28;20629;-80
2021/04/29 10:44:47;;;;;;;7.03;6.33;;;17.10;58.60;;;;;;5107229;28;20645;-79
2021/04/29 10:47:23;;;;;;;6.90;6.30;;;16.70;58.90;;;;;;5092411;28;20678;-80
2021/04/29 10:49:51;;;;;;;7.37;6.77;;;17.00;61.10;;;;;;5109104;28;20630;-80
2021/04/29 10:52:18;;;;;;;7.47;6.77;;;17.10;58.70;;;;;;5092338;28;21149;-79
2021/04/29 10:54:52;;;;;;;7.43;5.90;;;17.40;59.20;;;;;;5101789;28;20627;-79
2021/04/29 10:57:20;;;;;;;7.37;6.67;;;17.10;58.30;;;;;;5103074;28;20623;-80
2021/04/29 10:59:48;;;;;;;7.07;6.37;;;17.10;58.80;;;;;;5110410;28;20626;-80
2021/04/29 11:02:23;;;;;;;6.40;5.77;;;17.10;58.40;;;;;;5112429;28;20642;-80
2021/04/29 11:04:52;;;;;;;6.80;6.20;;;17.70;59.20;;;;;;5102799;28;20643;-80
2021/04/29 11:07:20;;;;;;;5.90;5.40;;;17.70;57.90;;;;;;5107366;28;20766;-80
2021/04/29 11:10:00;;;;;;;6.97;6.33;;;18.20;57.70;;;;;;5092638;28;20628;-81
2021/04/29 11:12:45;;;;;;;7.03;6.33;;;18.30;56.80;;;;;;5092027;28;20625;-79
2021/04/29 11:15:27;;;;;;;6.87;6.17;;;18.00;56.30;;;;;;5102956;28;21210;-81
2021/04/29 11:18:04;;;;;;;5.90;5.03;;;18.30;57.20;;;;;;5100320;28;20674;-80
2021/04/29 11:20:46;;;;;;;6.40;4.63;;;18.20;53.90;;;;;;5095580;28;20619;-81
2021/04/29 11:23:14;;;;;;;7.33;5.37;;;17.70;53.70;;;;;;5091124;28;21072;-81
2021/04/29 11:25:41;;;;;;;6.43;4.80;;;17.70;54.20;;;;;;5092914;28;21049;-81
2021/04/29 11:28:10;;;;;;;4.77;3.40;;;18.10;54.70;;;;;;5099716;28;20634;-81
2021/04/29 11:30:39;;;;;;;4.27;3.90;;;18.60;52.00;;;;;;5089620;28;20643;-82
2021/04/29 11:33:09;;;;;;;6.20;5.30;;;18.60;50.90;;;;;;5091270;28;20620;-81
2021/04/29 11:35:38;;;;;;;5.20;4.70;;;18.40;55.80;;;;;;5091913;28;20609;-82
2021/04/29 11:38:08;;;;;;;5.27;4.80;;;18.20;55.50;;;;;;5091215;28;20998;-82
2021/04/29 11:40:36;;;;;;;8.07;4.50;;;18.30;53.60;;;;;;5092458;28;20618;-81
2021/04/29 11:43:04;;;;;;;5.50;5.00;;;17.10;54.50;;;;;;5096852;28;20623;-81
2021/04/29 11:45:33;;;;;;;5.67;5.17;;;17.00;55.50;;;;;;5087929;28;20638;-82
2021/04/29 11:48:01;;;;;;;5.10;4.60;;;16.40;56.00;;;;;;5109002;28;20623;-82
2021/04/29 11:50:31;;;;;;;4.97;4.50;;;16.00;55.70;;;;;;5099872;28;20604;-82
2021/04/29 11:53:23;;;;;;;5.50;4.40;;;15.30;57.20;;;;;;5091704;28;20613;-80
2021/04/29 11:55:59;;;;;;;4.50;4.10;;;14.70;58.40;;;;;;5099760;28;20689;-81
2021/04/29 11:58:26;;;;;;;5.33;4.83;;;14.60;59.00;;;;;;5111195;28;21016;-81
2021/04/29 12:00:56;;;;;;;5.30;4.70;;;14.70;59.00;;;;;;5108370;28;20615;-80
2021/04/29 12:03:25;;;;;;;5.50;5.00;;;15.00;58.80;;;;;;5111639;28;20959;-82
2021/04/29 12:05:53;;;;;;;5.30;4.80;;;15.50;57.50;;;;;;5107502;28;20636;-82
2021/04/29 12:08:21;;;;;;;4.80;4.40;;;17.80;56.30;;;;;;5111840;28;21163;-81
2021/04/29 12:10:51;;;;;;;4.77;4.27;;;18.40;53.00;;;;;;5097236;28;20663;-82
2021/04/29 12:13:28;;;;;;;6.53;4.60;;;19.00;52.20;;;;;;5071227;28;20722;-83
2021/04/29 12:15:56;;;;;;;3.97;3.57;;;20.20;50.00;;;;;;5088021;28;20670;-82
2021/04/29 12:18:23;;;;;;;4.60;3.73;;;18.20;51.10;;;;;;5091550;28;20648;-82
2021/04/29 12:20:50;;;;;;;4.87;4.47;;;17.70;52.20;;;;;;5097069;28;20621;-81
2021/04/29 12:23:17;;;;;;;5.60;4.20;;;17.00;53.20;;;;;;5091093;28;20623;-82
2021/04/29 12:25:56;;;;;;;4.87;4.37;;;16.40;53.80;;;;;;5092048;28;21089;-81
2021/04/29 12:28:28;;;;;;;4.57;4.17;;;16.00;53.90;;;;;;5091153;28;20616;-81
2021/04/29 12:30:54;;;;;;;5.20;3.40;;;15.30;55.20;;;;;;5101941;28;20615;-81
2021/04/29 12:33:21;;;;;;;4.80;3.90;;;15.00;56.60;;;;;;5104738;28;20659;-82
2021/04/29 12:35:48;;;;;;;3.40;3.20;;;14.70;58.70;;;;;;5100137;28;20627;-82
2021/04/29 12:38:15;;;;;;;4.17;3.77;;;14.60;58.90;;;;;;5111236;28;20628;-81
2021/04/29 12:40:42;;;;;;;5.23;3.83;;;16.40;59.40;;;;;;5094260;28;20675;-81
2021/04/29 12:43:15;;;;;;;4.83;4.20;;;16.90;54.00;;;;;;5076125;28;21274;-81
2021/04/29 12:45:50;;;;;;;4.87;4.47;;;16.50;54.50;;;;;;5076589;28;20691;-81
2021/04/29 12:48:29;;;;;;;6.07;5.57;;;16.50;54.80;;;;;;5083701;28;20717;-81
2021/04/29 12:51:15;;;;;;;4.80;4.40;;;16.10;55.80;;;;;;5098349;28;20631;-81